createdAt,value
2023-04-28T00:00:33.492Z,57.2
2023-04-28T00:01:33.502Z,57.2
2023-04-28T00:02:33.621Z,57.3
2023-04-28T00:03:33.741Z,57.3
2023-04-28T00:04:33.706Z,57.3
2023-04-28T00:05:33.621Z,57.3
2023-04-28T00:06:33.571Z,57.3
2023-04-28T00:07:33.475Z,57.4
2023-04-28T00:08:33.470Z,57.4
2023-04-28T00:09:33.469Z,57.4
2023-04-28T00:10:33.478Z,57.4
2023-04-28T00:11:33.486Z,57.4
2023-04-28T00:12:33.491Z,57.4
2023-04-28T00:13:33.521Z,57.5
2023-04-28T00:14:33.510Z,57.5
2023-04-28T00:15:33.515Z,57.5
2023-04-28T00:16:33.500Z,57.6
2023-04-28T00:17:33.742Z,57.6
2023-04-28T00:18:33.464Z,57.7
2023-04-28T00:19:33.474Z,57.7
2023-04-28T00:20:33.706Z,57.7
2023-04-28T00:21:33.451Z,57.7
2023-04-28T00:22:33.451Z,57.8
2023-04-28T00:23:33.470Z,57.8
2023-04-28T00:24:33.406Z,57.8
2023-04-28T00:25:33.506Z,57.9
2023-04-28T00:26:33.476Z,57.9
2023-04-28T00:27:33.507Z,57.9
2023-04-28T00:28:34.931Z,57.9
2023-04-28T00:29:33.492Z,57.9
2023-04-28T00:30:33.516Z,57.9
2023-04-28T00:31:33.521Z,57.9
2023-04-28T00:32:33.491Z,58.0
2023-04-28T00:33:33.401Z,58.0
2023-04-28T00:34:33.436Z,58.0
2023-04-28T00:35:33.462Z,58.1
2023-04-28T00:36:33.448Z,58.1
2023-04-28T00:37:33.424Z,58.2
2023-04-28T00:38:33.443Z,58.1
2023-04-28T00:39:33.604Z,58.2
2023-04-28T00:40:33.472Z,58.1
2023-04-28T00:41:44.166Z,58.1
2023-04-28T00:42:33.441Z,58.2
2023-04-28T00:43:33.408Z,58.2
2023-04-28T00:44:33.451Z,58.2
2023-04-28T00:45:33.445Z,58.2
2023-04-28T00:46:33.436Z,58.2
2023-04-28T00:47:33.490Z,58.2
2023-04-28T00:48:33.449Z,58.2
2023-04-28T00:49:33.419Z,58.3
2023-04-28T00:50:33.592Z,58.3
2023-04-28T00:51:41.260Z,58.4
2023-04-28T00:52:33.409Z,58.4
2023-04-28T00:53:33.407Z,58.3
2023-04-28T00:54:33.408Z,58.3
2023-04-28T00:55:33.429Z,58.3
2023-04-28T00:56:33.401Z,58.4
2023-04-28T00:57:36.310Z,58.4
2023-04-28T00:58:33.393Z,58.4
2023-04-28T00:59:33.614Z,58.4
2023-04-28T01:00:33.401Z,58.4
2023-04-28T01:01:33.479Z,58.4
2023-04-28T01:02:33.540Z,58.5
2023-04-28T01:03:33.535Z,58.5
2023-04-28T01:04:33.875Z,58.5
2023-04-28T01:05:33.412Z,58.5
2023-04-28T01:06:33.355Z,58.5
2023-04-28T01:07:33.570Z,58.5
2023-04-28T01:08:33.422Z,58.5
2023-04-28T01:09:33.721Z,58.5
2023-04-28T01:10:33.359Z,58.6
2023-04-28T01:11:33.396Z,58.6
2023-04-28T01:12:33.480Z,58.6
2023-04-28T01:13:33.428Z,58.6
2023-04-28T01:14:33.409Z,58.7
2023-04-28T01:15:33.351Z,58.7
2023-04-28T01:16:33.418Z,58.7
2023-04-28T01:17:33.512Z,58.7
2023-04-28T01:18:33.391Z,58.7
2023-04-28T01:19:33.418Z,58.7
2023-04-28T01:20:34.530Z,58.7
2023-04-28T01:21:56.311Z,58.8
2023-04-28T01:22:33.364Z,58.8
2023-04-28T01:23:33.355Z,58.8
2023-04-28T01:24:33.346Z,58.8
2023-04-28T01:25:33.365Z,58.8
2023-04-28T01:26:33.341Z,58.8
2023-04-28T01:27:33.347Z,58.8
2023-04-28T01:29:33.370Z,58.8
2023-04-28T01:30:33.354Z,58.8
2023-04-28T01:31:33.373Z,58.9
2023-04-28T01:32:33.400Z,58.9
2023-04-28T01:33:33.322Z,58.9
2023-04-28T01:34:33.509Z,58.8
2023-04-28T01:35:33.371Z,58.9
2023-04-28T01:36:34.740Z,58.9
2023-04-28T01:37:33.313Z,58.9
2023-04-28T01:38:33.364Z,58.9
2023-04-28T01:39:33.335Z,58.9
2023-04-28T01:40:33.375Z,58.9
2023-04-28T01:41:33.309Z,58.9
2023-04-28T01:42:33.343Z,58.9
2023-04-28T01:43:33.274Z,58.9
2023-04-28T01:44:33.304Z,58.9
2023-04-28T01:45:33.293Z,58.9
2023-04-28T01:46:33.449Z,58.9
2023-04-28T01:47:33.387Z,58.9
2023-04-28T01:48:33.283Z,58.9
2023-04-28T01:49:34.846Z,58.9
2023-04-28T01:50:33.327Z,58.9
2023-04-28T01:51:33.305Z,58.9
2023-04-28T01:52:33.325Z,58.9
2023-04-28T01:54:33.308Z,59.0
2023-04-28T01:55:33.337Z,59.0
2023-04-28T01:56:33.318Z,59.0
2023-04-28T01:57:33.320Z,59.0
2023-04-28T01:58:33.268Z,59.0
2023-04-28T01:59:33.295Z,59.0
2023-04-28T02:00:33.333Z,59.0
2023-04-28T02:01:33.381Z,59.0
2023-04-28T02:02:33.456Z,59.1
2023-04-28T02:03:33.366Z,59.0
2023-04-28T02:04:33.306Z,59.0
2023-04-28T02:05:33.503Z,59.1
2023-04-28T02:06:33.289Z,59.1
2023-04-28T02:07:33.481Z,59.1
2023-04-28T02:08:33.285Z,59.1
2023-04-28T02:09:33.288Z,59.2
2023-04-28T02:10:33.287Z,59.2
2023-04-28T02:11:33.265Z,59.2
2023-04-28T02:12:33.298Z,59.2
2023-04-28T02:13:33.248Z,59.2
2023-04-28T02:14:33.257Z,59.2
2023-04-28T02:15:33.283Z,59.3
2023-04-28T02:16:33.558Z,59.3
2023-04-28T02:17:33.345Z,59.3
2023-04-28T02:18:33.396Z,59.3
2023-04-28T02:19:33.223Z,59.3
2023-04-28T02:20:33.495Z,59.3
2023-04-28T02:21:33.238Z,59.4
2023-04-28T02:22:33.220Z,59.4
2023-04-28T02:23:33.288Z,59.4
2023-04-28T02:24:33.249Z,59.4
2023-04-28T02:25:33.290Z,59.4
2023-04-28T02:26:33.245Z,59.4
2023-04-28T02:28:33.289Z,59.4
2023-04-28T02:29:33.431Z,59.5
2023-04-28T02:30:33.279Z,59.5
2023-04-28T02:31:33.306Z,59.5
2023-04-28T02:32:33.335Z,59.5
2023-04-28T02:33:33.271Z,59.5
2023-04-28T02:34:33.258Z,59.4
2023-04-28T02:35:33.276Z,59.4
2023-04-28T02:36:33.225Z,59.4
2023-04-28T02:37:33.353Z,59.4
2023-04-28T02:38:33.527Z,59.4
2023-04-28T02:39:33.847Z,59.4
2023-04-28T02:40:33.303Z,59.4
2023-04-28T02:41:33.199Z,59.4
2023-04-28T02:42:33.195Z,59.4
2023-04-28T02:43:37.777Z,59.5
2023-04-28T02:44:33.214Z,59.5
2023-04-28T02:45:33.230Z,59.6
2023-04-28T02:46:33.247Z,59.6
2023-04-28T02:47:33.289Z,59.6
2023-04-28T02:48:33.297Z,59.7
2023-04-28T02:49:33.178Z,59.7
2023-04-28T02:50:33.446Z,59.8
2023-04-28T02:51:33.297Z,59.8
2023-04-28T02:52:33.240Z,59.8
2023-04-28T02:53:33.243Z,59.8
2023-04-28T02:54:33.203Z,59.8
2023-04-28T02:55:33.274Z,59.8
2023-04-28T02:56:33.232Z,59.8
2023-04-28T02:57:33.236Z,59.8
2023-04-28T02:58:33.179Z,59.8
2023-04-28T02:59:33.219Z,59.9
2023-04-28T03:00:33.197Z,59.9
2023-04-28T03:01:33.264Z,59.9
2023-04-28T03:02:33.391Z,59.9
2023-04-28T03:03:33.293Z,59.8
2023-04-28T03:04:33.301Z,59.9
2023-04-28T03:05:33.214Z,59.8
2023-04-28T03:06:33.144Z,59.9
2023-04-28T03:07:33.316Z,59.9
2023-04-28T03:08:33.222Z,59.9
2023-04-28T03:09:33.173Z,59.9
2023-04-28T03:10:33.232Z,59.9
2023-04-28T03:11:33.161Z,59.9
2023-04-28T03:12:33.211Z,59.9
2023-04-28T03:13:33.354Z,59.9
2023-04-28T03:14:33.133Z,59.9
2023-04-28T03:15:33.186Z,59.9
2023-04-28T03:16:33.229Z,59.9
2023-04-28T03:17:33.175Z,59.9
2023-04-28T03:18:33.138Z,59.9
2023-04-28T03:19:33.142Z,59.9
2023-04-28T03:20:33.144Z,59.9
2023-04-28T03:21:33.156Z,60.0
2023-04-28T03:22:33.258Z,60.0
2023-04-28T03:23:33.118Z,60.0
2023-04-28T03:24:33.336Z,60.0
2023-04-28T03:25:33.177Z,60.0
2023-04-28T03:26:33.156Z,60.0
2023-04-28T03:27:33.212Z,60.1
2023-04-28T03:28:33.160Z,60.1
2023-04-28T03:29:33.184Z,60.1
2023-04-28T03:30:33.173Z,60.1
2023-04-28T03:31:57.233Z,60.2
2023-04-28T03:32:33.203Z,60.2
2023-04-28T03:33:33.206Z,60.2
2023-04-28T03:34:33.158Z,60.2
2023-04-28T03:35:33.373Z,60.2
2023-04-28T03:36:33.110Z,60.2
2023-04-28T03:37:33.176Z,60.3
2023-04-28T03:38:33.145Z,60.3
2023-04-28T03:39:33.139Z,60.3
2023-04-28T03:40:33.129Z,60.4
2023-04-28T03:41:33.246Z,60.4
2023-04-28T03:42:33.102Z,60.4
2023-04-28T03:43:33.143Z,60.5
2023-04-28T03:44:33.094Z,60.5
2023-04-28T03:45:33.298Z,60.5
2023-04-28T03:46:33.061Z,60.5
2023-04-28T03:47:33.118Z,60.5
2023-04-28T03:48:33.097Z,60.5
2023-04-28T03:49:33.126Z,60.5
2023-04-28T03:50:33.304Z,60.5
2023-04-28T03:51:33.081Z,60.5
2023-04-28T03:52:33.122Z,60.5
2023-04-28T03:53:33.069Z,60.6
2023-04-28T03:54:33.047Z,60.6
2023-04-28T03:55:33.141Z,60.7
2023-04-28T03:56:33.157Z,60.7
2023-04-28T03:57:33.108Z,60.8
2023-04-28T03:58:33.380Z,60.8
2023-04-28T03:59:33.153Z,60.8
2023-04-28T04:00:33.056Z,60.8
2023-04-28T04:01:33.049Z,60.8
2023-04-28T04:02:33.314Z,60.8
2023-04-28T04:03:33.218Z,60.8
2023-04-28T04:04:33.330Z,60.8
2023-04-28T04:05:33.091Z,60.8
2023-04-28T04:06:33.038Z,60.9
2023-04-28T04:08:33.061Z,60.9
2023-04-28T04:09:47.596Z,61.0
2023-04-28T04:10:33.121Z,61.0
2023-04-28T04:11:33.065Z,61.1
2023-04-28T04:12:33.025Z,61.1
2023-04-28T04:13:33.029Z,61.1
2023-04-28T04:14:33.120Z,61.1
2023-04-28T04:15:33.111Z,61.1
2023-04-28T04:16:33.028Z,61.2
2023-04-28T04:17:33.091Z,61.2
2023-04-28T04:18:33.184Z,61.2
2023-04-28T04:19:33.051Z,61.2
2023-04-28T04:20:33.040Z,61.2
2023-04-28T04:21:33.020Z,61.2
2023-04-28T04:22:33.050Z,61.3
2023-04-28T04:23:33.049Z,61.3
2023-04-28T04:24:33.036Z,61.3
2023-04-28T04:25:33.001Z,61.3
2023-04-28T04:26:33.014Z,61.3
2023-04-28T04:27:33.088Z,61.3
2023-04-28T04:28:33.437Z,61.3
2023-04-28T04:29:33.198Z,61.4
2023-04-28T04:30:32.998Z,61.3
2023-04-28T04:31:33.114Z,61.4
2023-04-28T04:32:33.026Z,61.4
2023-04-28T04:33:33.015Z,61.4
2023-04-28T04:34:33.023Z,61.4
2023-04-28T04:35:33.022Z,61.4
2023-04-28T04:36:33.039Z,61.4
2023-04-28T04:37:33.037Z,61.5
2023-04-28T04:38:32.986Z,61.5
2023-04-28T04:39:33.004Z,61.5
2023-04-28T04:40:33.153Z,61.5
2023-04-28T04:41:33.017Z,61.5
2023-04-28T04:42:33.132Z,61.5
2023-04-28T04:43:32.994Z,61.5
2023-04-28T04:44:33.021Z,61.6
2023-04-28T04:45:32.986Z,61.6
2023-04-28T04:46:33.084Z,61.6
2023-04-28T04:47:33.055Z,61.6
2023-04-28T04:48:32.976Z,61.6
2023-04-28T04:49:32.957Z,61.6
2023-04-28T04:50:32.995Z,61.6
2023-04-28T04:51:33.249Z,61.6
2023-04-28T04:52:33.010Z,61.6
2023-04-28T04:53:32.951Z,61.6
2023-04-28T04:54:32.989Z,61.6
2023-04-28T04:55:32.989Z,61.6
2023-04-28T04:56:32.950Z,61.6
2023-04-28T04:57:33.087Z,61.6
2023-04-28T04:58:32.989Z,61.6
2023-04-28T04:59:32.977Z,61.6
2023-04-28T05:00:33.066Z,61.6
2023-04-28T05:01:33.036Z,61.6
2023-04-28T05:02:33.266Z,61.6
2023-04-28T05:03:33.249Z,61.6
2023-04-28T05:04:33.066Z,61.7
2023-04-28T05:07:33.080Z,61.7
2023-04-28T05:08:33.116Z,61.7
2023-04-28T05:09:33.046Z,61.7
2023-04-28T05:10:32.983Z,61.7
2023-04-28T05:11:32.956Z,61.7
2023-04-28T05:12:33.029Z,61.6
2023-04-28T05:13:33.078Z,61.6
2023-04-28T05:14:32.952Z,61.7
2023-04-28T05:15:33.126Z,61.7
2023-04-28T05:16:32.997Z,61.7
2023-04-28T05:17:32.973Z,61.7
2023-04-28T05:18:32.934Z,61.7
2023-04-28T05:19:32.971Z,61.7
2023-04-28T05:20:32.964Z,61.7
2023-04-28T05:21:33.012Z,61.7
2023-04-28T05:22:32.933Z,61.7
2023-04-28T05:23:32.952Z,61.7
2023-04-28T05:24:33.063Z,61.7
2023-04-28T05:25:32.968Z,61.7
2023-04-28T05:26:32.990Z,61.6
2023-04-28T05:27:32.947Z,61.6
2023-04-28T05:28:32.882Z,61.6
2023-04-28T05:29:32.921Z,61.5
2023-04-28T05:30:32.914Z,61.5
2023-04-28T05:31:33.142Z,61.5
2023-04-28T05:32:32.977Z,61.4
2023-04-28T05:33:32.909Z,61.4
2023-04-28T05:34:33.150Z,61.4
2023-04-28T05:35:32.877Z,61.4
2023-04-28T05:36:32.897Z,61.3
2023-04-28T05:37:32.932Z,61.3
2023-04-28T05:38:32.955Z,61.3
2023-04-28T05:39:32.952Z,61.3
2023-04-28T05:40:32.895Z,61.2
2023-04-28T05:41:32.911Z,61.2
2023-04-28T05:42:32.885Z,61.2
2023-04-28T05:43:32.897Z,61.3
2023-04-28T05:44:32.891Z,61.2
2023-04-28T05:45:32.917Z,61.2
2023-04-28T05:46:33.044Z,61.2
2023-04-28T05:47:33.087Z,61.2
2023-04-28T05:48:32.889Z,61.1
2023-04-28T05:49:32.929Z,61.1
2023-04-28T05:50:32.912Z,61.1
2023-04-28T05:51:32.899Z,61.1
2023-04-28T05:52:32.866Z,61.1
2023-04-28T05:53:32.893Z,61.0
2023-04-28T05:55:33.055Z,61.0
2023-04-28T05:56:32.897Z,61.0
2023-04-28T05:57:41.734Z,61.0
2023-04-28T05:58:32.859Z,61.0
2023-04-28T05:59:32.870Z,61.0
2023-04-28T06:00:32.872Z,61.0
2023-04-28T06:01:32.849Z,61.0
2023-04-28T06:02:33.012Z,61.0
2023-04-28T06:03:33.124Z,61.0
2023-04-28T06:04:33.309Z,61.0
2023-04-28T06:05:33.295Z,61.0
2023-04-28T06:06:32.896Z,61.0
2023-04-28T06:07:32.875Z,61.0
2023-04-28T06:08:33.095Z,61.0
2023-04-28T06:09:32.865Z,60.9
2023-04-28T06:10:32.869Z,61.0
2023-04-28T06:11:32.969Z,61.0
2023-04-28T06:12:32.887Z,61.0
2023-04-28T06:13:32.837Z,61.0
2023-04-28T06:14:32.823Z,61.0
2023-04-28T06:15:32.876Z,61.0
2023-04-28T06:16:32.889Z,60.9
2023-04-28T06:17:32.951Z,60.8
2023-04-28T06:18:33.038Z,60.8
2023-04-28T06:20:32.929Z,60.8
2023-04-28T06:21:32.843Z,60.7
2023-04-28T06:22:32.839Z,60.7
2023-04-28T06:23:32.827Z,60.6
2023-04-28T06:24:32.839Z,60.6
2023-04-28T06:25:32.857Z,60.6
2023-04-28T06:26:32.831Z,60.5
2023-04-28T06:27:32.912Z,60.5
2023-04-28T06:28:32.818Z,60.5
2023-04-28T06:29:32.843Z,60.4
2023-04-28T06:30:33.072Z,60.4
2023-04-28T06:31:32.894Z,60.4
2023-04-28T06:32:33.055Z,60.3
2023-04-28T06:33:32.805Z,60.3
2023-04-28T06:34:32.823Z,60.3
2023-04-28T06:35:32.961Z,60.2
2023-04-28T06:36:33.008Z,60.2
2023-04-28T06:37:32.830Z,60.1
2023-04-28T06:38:32.865Z,60.1
2023-04-28T06:39:32.803Z,60.1
2023-04-28T06:40:32.897Z,60.1
2023-04-28T06:41:33.234Z,60.1
2023-04-28T06:42:32.790Z,60.1
2023-04-28T06:43:33.127Z,60.1
2023-04-28T06:44:33.882Z,60.0
2023-04-28T06:45:32.819Z,60.0
2023-04-28T06:46:33.013Z,60.0
2023-04-28T06:47:32.795Z,59.9
2023-04-28T06:48:32.772Z,59.8
2023-04-28T06:49:32.795Z,59.8
2023-04-28T06:50:32.851Z,59.8
2023-04-28T06:51:32.914Z,59.8
2023-04-28T06:52:38.887Z,59.8
2023-04-28T06:53:33.044Z,59.8
2023-04-28T06:54:32.800Z,59.8
2023-04-28T06:55:32.838Z,59.7
2023-04-28T06:56:33.047Z,59.6
2023-04-28T06:57:32.749Z,59.6
2023-04-28T06:58:32.785Z,59.6
2023-04-28T06:59:32.814Z,59.4
2023-04-28T07:00:32.743Z,59.4
2023-04-28T07:01:32.796Z,59.3
2023-04-28T07:02:32.915Z,59.3
2023-04-28T07:03:32.903Z,59.3
2023-04-28T07:04:32.791Z,59.3
2023-04-28T07:05:32.755Z,59.2
2023-04-28T07:06:32.876Z,59.1
2023-04-28T07:07:33.016Z,59.0
2023-04-28T07:08:33.008Z,59.0
2023-04-28T07:09:33.234Z,58.9
2023-04-28T07:10:32.963Z,58.9
2023-04-28T07:12:32.901Z,58.8
2023-04-28T07:13:32.967Z,58.6
2023-04-28T07:14:32.992Z,58.6
2023-04-28T07:15:32.783Z,58.6
2023-04-28T07:16:32.795Z,58.6
2023-04-28T07:17:33.171Z,58.5
2023-04-28T07:18:32.794Z,58.4
2023-04-28T07:19:32.793Z,58.4
2023-04-28T07:20:32.770Z,58.3
2023-04-28T07:21:32.777Z,58.2
2023-04-28T07:22:32.988Z,58.2
2023-04-28T07:23:32.876Z,58.1
2023-04-28T07:24:32.779Z,58.0
2023-04-28T07:25:32.811Z,57.9
2023-04-28T07:26:32.808Z,57.8
2023-04-28T07:27:32.804Z,57.8
2023-04-28T07:28:33.004Z,57.6
2023-04-28T07:29:32.696Z,57.5
2023-04-28T07:30:32.685Z,57.4
2023-04-28T07:31:32.746Z,57.3
2023-04-28T07:32:32.750Z,57.2
2023-04-28T07:33:33.281Z,57.2
2023-04-28T07:34:32.707Z,57.2
2023-04-28T07:35:33.257Z,57.2
2023-04-28T07:36:32.717Z,57.2
2023-04-28T07:37:33.194Z,57.1
2023-04-28T07:38:32.738Z,57.0
2023-04-28T07:39:32.724Z,56.9
2023-04-28T07:40:32.720Z,56.9
2023-04-28T07:41:32.678Z,56.7
2023-04-28T07:42:32.708Z,56.6
2023-04-28T07:43:32.717Z,56.4
2023-04-28T07:44:32.659Z,56.4
2023-04-28T07:45:32.675Z,56.1
2023-04-28T07:46:33.055Z,56.2
2023-04-28T07:47:32.756Z,56.0
2023-04-28T07:48:32.865Z,56.1
2023-04-28T07:49:32.693Z,56.1
2023-04-28T07:50:32.683Z,56.0
2023-04-28T07:51:32.666Z,55.7
2023-04-28T07:52:32.670Z,55.8
2023-04-28T07:53:32.729Z,55.8
2023-04-28T07:54:33.206Z,55.5
2023-04-28T07:55:32.694Z,55.5
2023-04-28T07:56:32.730Z,55.6
2023-04-28T07:57:32.864Z,55.1
2023-04-28T07:58:32.844Z,55.2
2023-04-28T07:59:32.641Z,55.2
2023-04-28T08:00:32.695Z,55.1
2023-04-28T08:01:32.702Z,55.1
2023-04-28T08:02:32.855Z,54.9
2023-04-28T08:03:32.893Z,54.8
2023-04-28T08:04:32.749Z,54.7
2023-04-28T08:05:32.792Z,54.7
2023-04-28T08:06:32.631Z,54.4
2023-04-28T08:07:32.650Z,54.3
2023-04-28T08:08:32.705Z,54.4
2023-04-28T08:09:32.654Z,54.3
2023-04-28T08:10:32.704Z,54.3
2023-04-28T08:11:32.660Z,54.2
2023-04-28T08:12:32.678Z,54.0
2023-04-28T08:13:32.846Z,53.4
2023-04-28T08:14:32.660Z,53.6
2023-04-28T08:15:32.793Z,53.6
2023-04-28T08:16:32.686Z,53.4
2023-04-28T08:17:32.673Z,53.4
2023-04-28T08:18:32.867Z,53.2
2023-04-28T08:19:32.734Z,53.2
2023-04-28T08:20:32.701Z,52.8
2023-04-28T08:21:32.719Z,53.0
2023-04-28T08:22:32.614Z,53.0
2023-04-28T08:23:32.602Z,52.9
2023-04-28T08:24:32.629Z,52.9
2023-04-28T08:25:32.627Z,53.0
2023-04-28T08:26:32.607Z,52.9
2023-04-28T08:27:32.625Z,52.6
2023-04-28T08:28:32.688Z,52.5
2023-04-28T08:29:32.600Z,52.6
2023-04-28T08:30:32.953Z,52.5
2023-04-28T08:31:32.909Z,52.3
2023-04-28T08:32:32.666Z,52.0
2023-04-28T08:33:32.605Z,51.9
2023-04-28T08:34:32.617Z,52.0
2023-04-28T08:35:32.661Z,51.8
2023-04-28T08:36:32.795Z,51.8
2023-04-28T08:37:32.607Z,51.8
2023-04-28T08:38:32.585Z,51.5
2023-04-28T08:39:32.578Z,51.7
2023-04-28T08:40:32.613Z,51.5
2023-04-28T08:41:32.682Z,51.5
2023-04-28T08:42:32.757Z,51.3
2023-04-28T08:43:32.869Z,51.2
2023-04-28T08:44:32.603Z,51.0
2023-04-28T08:45:32.575Z,50.6
2023-04-28T08:46:32.689Z,50.8
2023-04-28T08:47:32.705Z,50.8
2023-04-28T08:48:32.555Z,50.6
2023-04-28T08:49:32.659Z,50.6
2023-04-28T08:50:32.598Z,50.4
2023-04-28T08:51:32.556Z,50.4
2023-04-28T08:52:32.722Z,50.3
2023-04-28T08:53:33.316Z,50.1
2023-04-28T08:54:32.971Z,49.6
2023-04-28T08:55:32.622Z,49.4
2023-04-28T08:56:32.598Z,49.9
2023-04-28T08:57:32.603Z,49.6
2023-04-28T08:58:32.562Z,49.7
2023-04-28T08:59:32.997Z,49.6
2023-04-28T09:00:32.588Z,49.7
2023-04-28T09:01:32.885Z,49.7
2023-04-28T09:02:32.724Z,49.5
2023-04-28T09:03:32.782Z,49.4
2023-04-28T09:04:32.995Z,49.4
2023-04-28T09:05:32.781Z,49.4
2023-04-28T09:06:32.607Z,48.9
2023-04-28T09:07:32.588Z,48.8
2023-04-28T09:08:32.577Z,48.7
2023-04-28T09:09:35.518Z,48.8
2023-04-28T09:10:32.564Z,48.6
2023-04-28T09:11:32.568Z,48.7
2023-04-28T09:12:32.574Z,48.5
2023-04-28T09:13:32.692Z,48.5
2023-04-28T09:14:32.744Z,48.3
2023-04-28T09:15:34.117Z,48.1
2023-04-28T09:16:32.721Z,48.1
2023-04-28T09:17:32.588Z,48.1
2023-04-28T09:18:32.507Z,47.8
2023-04-28T09:19:32.540Z,47.6
2023-04-28T09:20:32.603Z,47.8
2023-04-28T09:21:32.533Z,47.9
2023-04-28T09:22:32.693Z,47.6
2023-04-28T09:23:32.559Z,47.3
2023-04-28T09:24:32.571Z,47.3
2023-04-28T09:25:32.575Z,47.4
2023-04-28T09:26:32.537Z,47.1
2023-04-28T09:27:32.551Z,47.1
2023-04-28T09:28:32.580Z,46.4
2023-04-28T09:29:32.695Z,46.4
2023-04-28T09:31:32.655Z,46.5
2023-04-28T09:32:32.661Z,46.3
2023-04-28T09:33:32.544Z,46.2
2023-04-28T09:34:32.619Z,46.1
2023-04-28T09:35:32.662Z,45.9
2023-04-28T09:36:32.785Z,46.2
2023-04-28T09:37:32.816Z,46.3
2023-04-28T09:38:32.741Z,46.0
2023-04-28T09:39:32.490Z,46.0
2023-04-28T09:40:32.590Z,45.8
2023-04-28T09:41:32.562Z,45.4
2023-04-28T09:42:32.504Z,45.7
2023-04-28T09:43:32.522Z,45.6
2023-04-28T09:44:32.516Z,45.5
2023-04-28T09:45:32.519Z,45.3
2023-04-28T09:46:32.642Z,45.6
2023-04-28T09:47:32.640Z,45.5
2023-04-28T09:48:32.714Z,45.0
2023-04-28T09:49:32.842Z,44.9
2023-04-28T09:50:32.502Z,44.8
2023-04-28T09:51:32.502Z,44.7
2023-04-28T09:52:32.490Z,44.7
2023-04-28T09:53:32.552Z,44.4
2023-04-28T09:54:32.479Z,44.5
2023-04-28T09:55:32.526Z,44.7
2023-04-28T09:56:33.501Z,44.8
2023-04-28T09:57:32.512Z,44.7
2023-04-28T09:58:32.742Z,44.5
2023-04-28T09:59:32.733Z,44.6
2023-04-28T10:00:32.754Z,44.6
2023-04-28T10:01:32.783Z,44.7
2023-04-28T10:02:43.346Z,44.6
2023-04-28T10:03:32.956Z,44.5
2023-04-28T10:04:32.571Z,44.3
2023-04-28T10:05:33.160Z,44.2
2023-04-28T10:06:32.622Z,44.1
2023-04-28T10:07:32.493Z,43.8
2023-04-28T10:08:32.753Z,44.0
2023-04-28T10:09:32.463Z,43.5
2023-04-28T10:10:32.480Z,43.8
2023-04-28T10:11:32.712Z,44.1
2023-04-28T10:12:32.468Z,44.2
2023-04-28T10:13:32.570Z,43.9
2023-04-28T10:14:32.638Z,43.9
2023-04-28T10:15:32.634Z,43.7
2023-04-28T10:16:33.068Z,43.3
2023-04-28T10:17:32.504Z,43.3
2023-04-28T10:18:32.782Z,43.3
2023-04-28T10:19:32.510Z,43.3
2023-04-28T10:20:32.705Z,42.8
2023-04-28T10:21:32.455Z,43.1
2023-04-28T10:22:32.489Z,42.7
2023-04-28T10:23:32.476Z,42.6
2023-04-28T10:24:32.677Z,42.2
2023-04-28T10:25:32.869Z,42.2
2023-04-28T10:26:32.450Z,42.6
2023-04-28T10:27:32.462Z,42.3
2023-04-28T10:28:32.438Z,42.2
2023-04-28T10:29:32.447Z,42.2
2023-04-28T10:30:32.470Z,42.1
2023-04-28T10:31:32.782Z,42.0
2023-04-28T10:32:32.517Z,42.0
2023-04-28T10:33:32.510Z,42.2
2023-04-28T10:34:32.436Z,41.5
2023-04-28T10:35:32.580Z,42.0
2023-04-28T10:36:36.314Z,42.1
2023-04-28T10:37:32.443Z,41.9
2023-04-28T10:38:32.446Z,41.9
2023-04-28T10:39:32.422Z,41.5
2023-04-28T10:40:32.511Z,41.3
2023-04-28T10:41:32.407Z,41.5
2023-04-28T10:42:32.620Z,41.6
2023-04-28T10:43:32.441Z,41.6
2023-04-28T10:44:32.435Z,41.6
2023-04-28T10:45:34.630Z,41.5
2023-04-28T10:46:32.529Z,41.4
2023-04-28T10:47:32.702Z,41.5
2023-04-28T10:48:32.420Z,41.4
2023-04-28T10:49:32.552Z,41.2
2023-04-28T10:50:39.167Z,41.0
2023-04-28T10:51:32.453Z,40.6
2023-04-28T10:52:32.407Z,40.7
2023-04-28T10:53:32.641Z,40.5
2023-04-28T10:54:32.432Z,40.4
2023-04-28T10:55:32.863Z,40.8
2023-04-28T10:56:32.871Z,40.9
2023-04-28T10:57:32.578Z,40.6
2023-04-28T10:58:32.518Z,40.6
2023-04-28T10:59:32.442Z,40.8
2023-04-28T11:00:32.655Z,40.0
2023-04-28T11:01:32.589Z,40.1
2023-04-28T11:02:32.524Z,40.2
2023-04-28T11:03:33.062Z,40.2
2023-04-28T11:04:32.997Z,40.2
2023-04-28T11:05:32.462Z,40.0
2023-04-28T11:06:32.507Z,40.0
2023-04-28T11:07:32.399Z,39.6
2023-04-28T11:08:32.514Z,39.9
2023-04-28T11:09:32.471Z,39.7
2023-04-28T11:10:32.675Z,39.7
2023-04-28T11:11:32.615Z,39.5
2023-04-28T11:12:32.457Z,39.4
2023-04-28T11:13:32.413Z,39.5
2023-04-28T11:14:32.521Z,39.6
2023-04-28T11:15:32.580Z,39.3
2023-04-28T11:16:32.465Z,39.2
2023-04-28T11:17:32.395Z,39.3
2023-04-28T11:18:32.404Z,39.1
2023-04-28T11:19:32.397Z,39.1
2023-04-28T11:20:32.396Z,39.2
2023-04-28T11:21:32.471Z,39.0
2023-04-28T11:22:32.370Z,39.1
2023-04-28T11:23:32.390Z,38.9
2023-04-28T11:24:32.433Z,38.7
2023-04-28T11:25:32.419Z,38.9
2023-04-28T11:26:32.734Z,38.9
2023-04-28T11:27:32.399Z,38.9
2023-04-28T11:28:32.398Z,39.1
2023-04-28T11:29:32.397Z,39.2
2023-04-28T11:30:32.370Z,39.1
2023-04-28T11:31:32.517Z,39.1
2023-04-28T11:32:32.441Z,39.1
2023-04-28T11:33:32.378Z,39.2
2023-04-28T11:34:32.372Z,39.2
2023-04-28T11:35:32.372Z,39.2
2023-04-28T11:36:32.367Z,39.2
2023-04-28T11:37:32.576Z,39.1
2023-04-28T11:38:32.638Z,39.1
2023-04-28T11:39:32.431Z,39.0
2023-04-28T11:40:32.589Z,39.0
2023-04-28T11:41:32.891Z,38.8
2023-04-28T11:42:32.395Z,38.7
2023-04-28T11:43:46.127Z,38.7
2023-04-28T11:44:32.335Z,38.6
2023-04-28T11:45:32.369Z,38.6
2023-04-28T11:46:32.328Z,38.5
2023-04-28T11:47:32.384Z,38.5
2023-04-28T11:48:32.383Z,38.6
2023-04-28T11:49:32.357Z,38.5
2023-04-28T11:50:32.354Z,38.3
2023-04-28T11:51:32.359Z,38.4
2023-04-28T11:52:32.366Z,38.3
2023-04-28T11:53:32.330Z,38.0
2023-04-28T11:54:32.361Z,38.2
2023-04-28T11:55:32.373Z,37.8
2023-04-28T11:56:32.400Z,38.1
2023-04-28T11:57:32.321Z,38.0
2023-04-28T11:58:32.327Z,38.0
2023-04-28T11:59:32.425Z,38.0
2023-04-28T12:00:32.331Z,37.7
2023-04-28T12:01:32.412Z,38.0
2023-04-28T12:02:32.808Z,38.0
2023-04-28T12:03:32.457Z,37.9
2023-04-28T12:04:32.306Z,37.7
2023-04-28T12:05:32.418Z,37.6
2023-04-28T12:06:32.310Z,37.4
2023-04-28T12:07:32.326Z,37.7
2023-04-28T12:08:32.679Z,37.7
2023-04-28T12:09:32.318Z,37.7
2023-04-28T12:10:32.509Z,37.8
2023-04-28T12:11:32.299Z,38.0
2023-04-28T12:12:45.202Z,38.0
2023-04-28T12:13:32.309Z,37.8
2023-04-28T12:14:32.328Z,38.0
2023-04-28T12:15:32.335Z,37.7
2023-04-28T12:16:32.304Z,37.7
2023-04-28T12:17:32.396Z,37.8
2023-04-28T12:18:32.288Z,37.9
2023-04-28T12:19:32.297Z,37.8
2023-04-28T12:20:32.298Z,37.7
2023-04-28T12:21:32.455Z,37.6
2023-04-28T12:22:32.313Z,37.5
2023-04-28T12:23:32.335Z,37.6
2023-04-28T12:24:32.360Z,37.6
2023-04-28T12:25:32.296Z,37.1
2023-04-28T12:26:32.377Z,37.1
2023-04-28T12:27:32.338Z,37.1
2023-04-28T12:28:32.332Z,37.1
2023-04-28T12:29:32.344Z,37.1
2023-04-28T12:30:32.307Z,37.1
2023-04-28T12:31:32.322Z,37.0
2023-04-28T12:32:32.431Z,37.1
2023-04-28T12:33:32.342Z,37.0
2023-04-28T12:34:32.302Z,37.3
2023-04-28T12:35:32.272Z,37.3
2023-04-28T12:36:32.276Z,37.2
2023-04-28T12:37:32.305Z,36.8
2023-04-28T12:38:32.263Z,36.6
2023-04-28T12:39:32.307Z,36.6
2023-04-28T12:40:32.458Z,36.7
2023-04-28T12:41:32.261Z,36.7
2023-04-28T12:42:39.101Z,36.8
2023-04-28T12:43:32.866Z,36.9
2023-04-28T12:44:32.295Z,37.0
2023-04-28T12:45:32.254Z,37.0
2023-04-28T12:46:32.320Z,37.2
2023-04-28T12:47:32.274Z,37.2
2023-04-28T12:48:32.250Z,37.1
2023-04-28T12:49:32.263Z,36.8
2023-04-28T12:50:32.301Z,36.8
2023-04-28T12:51:32.285Z,36.5
2023-04-28T12:52:32.259Z,36.7
2023-04-28T12:53:32.266Z,36.5
2023-04-28T12:54:32.497Z,36.7
2023-04-28T12:55:32.318Z,36.8
2023-04-28T12:56:32.302Z,36.8
2023-04-28T12:57:32.254Z,36.8
2023-04-28T12:58:32.277Z,36.8
2023-04-28T12:59:32.273Z,36.8
2023-04-28T13:00:32.289Z,36.8
2023-04-28T13:01:32.380Z,36.9
2023-04-28T13:02:32.374Z,37.0
2023-04-28T13:03:32.389Z,37.0
2023-04-28T13:04:33.863Z,37.0
2023-04-28T13:05:32.441Z,37.0
2023-04-28T13:06:32.420Z,37.0
2023-04-28T13:07:32.264Z,37.0
2023-04-28T13:08:32.261Z,36.7
2023-04-28T13:09:32.265Z,36.8
2023-04-28T13:10:32.411Z,36.8
2023-04-28T13:11:32.224Z,36.7
2023-04-28T13:12:32.249Z,36.8
2023-04-28T13:13:32.213Z,36.9
2023-04-28T13:14:32.238Z,36.8
2023-04-28T13:15:32.278Z,36.8
2023-04-28T13:16:32.287Z,36.6
2023-04-28T13:17:32.322Z,36.5
2023-04-28T13:18:32.282Z,36.3
2023-04-28T13:19:32.381Z,36.5
2023-04-28T13:20:32.323Z,36.1
2023-04-28T13:21:32.236Z,36.0
2023-04-28T13:22:32.228Z,36.0
2023-04-28T13:23:32.204Z,36.0
2023-04-28T13:24:32.226Z,36.0
2023-04-28T13:26:32.219Z,36.0
2023-04-28T13:27:32.371Z,35.9
2023-04-28T13:28:32.229Z,36.1
2023-04-28T13:29:32.362Z,36.0